createdAt,value
2022-08-17T00:00:34.203Z,97339.56
2022-08-17T00:02:41.095Z,97339.69
2022-08-17T00:04:50.684Z,97339.72
2022-08-17T00:06:53.324Z,97342.38
2022-08-17T00:08:54.647Z,97339.81
2022-08-17T00:10:56.002Z,97337.44
2022-08-17T00:12:57.315Z,97342.75
2022-08-17T00:14:58.626Z,97338.59
2022-08-17T00:16:59.967Z,97335.25
2022-08-17T00:19:08.376Z,97338.69
2022-08-17T00:21:10.447Z,97331.94
2022-08-17T00:23:11.964Z,97334.53
2022-08-17T00:25:13.274Z,97335.50
2022-08-17T00:27:14.672Z,97333.03
2022-08-17T00:29:19.656Z,97328.78
2022-08-17T00:31:21.625Z,97333.13
2022-08-17T00:33:23.645Z,97335.78
2022-08-17T00:35:25.298Z,97331.47
2022-08-17T00:37:26.646Z,97335.81
2022-08-17T00:39:27.983Z,97333.25
2022-08-17T00:41:29.512Z,97325.66
2022-08-17T00:43:32.431Z,97325.06
2022-08-17T00:45:33.741Z,97330.19
2022-08-17T00:47:35.034Z,97322.44
2022-08-17T00:49:36.406Z,97323.38
2022-08-17T00:51:37.720Z,97320.13
2022-08-17T00:53:39.059Z,97195.56
2022-08-17T00:55:40.381Z,97325.28
2022-08-17T00:57:41.681Z,97328.81
2022-08-17T00:59:42.990Z,97319.38
2022-08-17T01:01:44.329Z,97318.53
2022-08-17T01:03:45.647Z,97326.22
2022-08-17T01:05:46.986Z,97322.84
2022-08-17T01:07:48.575Z,97326.09
2022-08-17T01:09:49.916Z,97322.63
2022-08-17T01:11:52.255Z,97343.88
2022-08-17T01:13:53.670Z,97326.22
2022-08-17T01:15:54.975Z,97328.69
2022-08-17T01:17:56.284Z,97327.28
2022-08-17T01:19:57.597Z,97325.47
2022-08-17T01:21:58.903Z,97335.44
2022-08-17T01:24:01.307Z,97331.78
2022-08-17T01:26:02.701Z,97340.13
2022-08-17T01:28:04.015Z,97329.91
2022-08-17T01:30:05.364Z,97328.19
2022-08-17T01:32:26.675Z,97329.84
2022-08-17T01:34:35.257Z,97333.28
2022-08-17T01:36:45.854Z,97335.09
2022-08-17T01:38:47.200Z,97336.06
2022-08-17T01:40:48.505Z,97332.28
2022-08-17T01:42:58.864Z,97337.22
2022-08-17T01:45:00.201Z,97338.94
2022-08-17T01:47:01.526Z,97347.38
2022-08-17T01:49:03.773Z,97350.78
2022-08-17T01:51:05.184Z,97345.78
2022-08-17T01:53:06.572Z,97355.47
2022-08-17T01:55:07.893Z,97358.84
2022-08-17T01:57:09.233Z,97360.47
2022-08-17T01:59:10.591Z,97357.94
2022-08-17T02:01:14.141Z,97356.94
2022-08-17T02:03:15.795Z,97358.59
2022-08-17T02:05:18.383Z,97346.75
2022-08-17T02:07:20.875Z,97344.19
2022-08-17T02:09:29.867Z,97346.88
2022-08-17T02:11:31.479Z,97347.16
2022-08-17T02:13:33.585Z,97342.13
2022-08-17T02:15:35.155Z,97336.06
2022-08-17T02:17:36.456Z,97336.06
2022-08-17T02:19:37.767Z,97336.09
2022-08-17T02:21:39.139Z,97334.38
2022-08-17T02:23:40.550Z,97333.72
2022-08-17T02:25:43.110Z,97331.81
2022-08-17T02:27:44.466Z,97327.44
2022-08-17T02:29:45.775Z,97332.56
2022-08-17T02:31:48.137Z,97334.38
2022-08-17T02:34:00.411Z,97342.16
2022-08-17T02:36:05.591Z,97336.28
2022-08-17T02:38:06.890Z,97333.88
2022-08-17T02:40:08.266Z,97333.03
2022-08-17T02:42:09.623Z,97331.25
2022-08-17T02:44:11.513Z,97326.75
2022-08-17T02:46:12.866Z,97334.31
2022-08-17T02:48:14.172Z,97332.72
2022-08-17T02:50:32.055Z,97333.59
2022-08-17T02:52:43.529Z,97326.69
2022-08-17T02:54:45.306Z,97326.13
2022-08-17T02:56:46.619Z,97326.25
2022-08-17T02:58:47.952Z,97333.16
2022-08-17T03:00:49.282Z,97327.16
2022-08-17T03:02:50.689Z,97324.44
2022-08-17T03:04:52.203Z,97325.38
2022-08-17T03:06:53.510Z,97324.59
2022-08-17T03:08:55.099Z,97327.84
2022-08-17T03:10:56.516Z,97329.72
2022-08-17T03:12:57.854Z,97332.16
2022-08-17T03:14:59.150Z,97321.88
2022-08-17T03:17:01.285Z,97326.69
2022-08-17T03:19:02.589Z,97326.69
2022-08-17T03:21:04.514Z,97332.66
2022-08-17T03:23:05.823Z,97336.06
2022-08-17T03:25:10.777Z,97330.47
2022-08-17T03:27:12.235Z,97329.56
2022-08-17T03:29:18.852Z,97334.88
2022-08-17T03:31:21.510Z,97334.88
2022-08-17T03:33:22.903Z,97328.88
2022-08-17T03:35:24.234Z,97335.69
2022-08-17T03:37:25.535Z,97337.41
2022-08-17T03:39:26.875Z,97334.03
2022-08-17T03:41:28.248Z,97332.81
2022-08-17T03:43:29.556Z,97327.75
2022-08-17T03:45:49.803Z,97324.94
2022-08-17T03:48:13.445Z,97316.38
2022-08-17T03:50:33.375Z,97323.94
2022-08-17T03:52:53.116Z,97322.03
2022-08-17T03:55:30.769Z,97328.75
2022-08-17T03:59:39.138Z,97330.84
2022-08-17T04:01:40.498Z,97330.06
2022-08-17T04:03:41.866Z,97332.59
2022-08-17T04:05:43.181Z,97330.84
2022-08-17T04:07:44.484Z,97329.50
2022-08-17T04:09:45.952Z,97327.84
2022-08-17T04:11:47.256Z,97337.09
2022-08-17T04:13:48.624Z,97333.66
2022-08-17T04:15:49.986Z,97331.78
2022-08-17T04:17:51.303Z,97334.13
2022-08-17T04:19:52.687Z,97333.94
2022-08-17T04:21:54.094Z,97339.97
2022-08-17T04:23:55.804Z,97337.44
2022-08-17T04:25:57.318Z,97337.50
2022-08-17T04:27:58.634Z,97328.28
2022-08-17T04:30:00.040Z,97335.16
2022-08-17T04:32:01.356Z,97332.69
2022-08-17T04:34:02.980Z,97335.84
2022-08-17T04:36:04.486Z,97337.44
2022-08-17T04:38:06.032Z,97336.03
2022-08-17T04:40:27.244Z,97336.22
2022-08-17T04:42:28.828Z,97335.50
2022-08-17T04:44:37.613Z,97342.31
2022-08-17T04:46:39.501Z,97345.75
2022-08-17T04:48:40.818Z,97349.25
2022-08-17T04:50:42.166Z,97349.13
2022-08-17T04:52:43.799Z,97341.44
2022-08-17T04:54:45.138Z,97345.66
2022-08-17T04:56:46.482Z,97345.66
2022-08-17T04:58:47.897Z,97355.00
2022-08-17T05:00:51.535Z,97354.13
2022-08-17T05:02:53.096Z,97354.06
2022-08-17T05:04:54.630Z,97360.84
2022-08-17T05:06:56.687Z,97351.41
2022-08-17T05:08:58.079Z,97361.72
2022-08-17T05:11:00.278Z,97358.34
2022-08-17T05:13:01.984Z,97368.50
2022-08-17T05:15:03.323Z,97363.53
2022-08-17T05:17:07.140Z,97353.59
2022-08-17T05:19:11.959Z,97357.44
2022-08-17T05:21:13.275Z,97353.09
2022-08-17T05:23:14.841Z,97358.22
2022-08-17T05:25:16.339Z,97357.28
2022-08-17T05:27:19.148Z,97365.66
2022-08-17T05:29:20.650Z,97352.81
2022-08-17T05:31:22.058Z,97355.09
2022-08-17T05:33:23.359Z,97349.84
2022-08-17T05:35:24.711Z,97355.81
2022-08-17T05:37:26.027Z,97358.44
2022-08-17T05:39:27.392Z,97364.34
2022-08-17T05:41:28.783Z,97361.69
2022-08-17T05:43:30.134Z,97366.78
2022-08-17T05:45:54.264Z,97369.25
2022-08-17T05:47:52.983Z,97364.22
2022-08-17T05:49:54.291Z,97368.38
2022-08-17T05:51:55.756Z,97365.69
2022-08-17T05:53:57.100Z,97365.59
2022-08-17T05:55:58.454Z,97376.50
2022-08-17T05:58:00.063Z,97371.28
2022-08-17T06:00:01.496Z,97370.50
2022-08-17T06:02:03.021Z,97372.94
2022-08-17T06:04:04.330Z,97381.34
2022-08-17T06:06:05.687Z,97369.34
2022-08-17T06:08:07.073Z,97376.16
2022-08-17T06:10:08.431Z,97376.16
2022-08-17T06:12:14.282Z,97387.25
2022-08-17T06:14:20.386Z,97378.72
2022-08-17T06:16:33.393Z,97382.88
2022-08-17T06:18:35.912Z,97386.22
2022-08-17T06:20:37.219Z,97380.13
2022-08-17T06:22:38.516Z,97387.69
2022-08-17T06:24:39.903Z,97394.38
2022-08-17T06:26:43.390Z,97384.00
2022-08-17T06:28:44.868Z,97394.94
2022-08-17T06:30:59.760Z,97387.91
2022-08-17T06:33:06.183Z,97394.63
2022-08-17T06:35:07.532Z,97396.94
2022-08-17T06:37:09.306Z,97395.09
2022-08-17T06:39:10.632Z,97402.78
2022-08-17T06:41:12.331Z,97395.03
2022-08-17T06:43:14.262Z,97407.84
2022-08-17T06:45:15.762Z,97399.19
2022-08-17T06:47:28.709Z,97391.47
2022-08-17T06:49:30.522Z,97395.69
2022-08-17T06:51:31.833Z,97394.69
2022-08-17T06:53:33.131Z,97395.41
2022-08-17T06:55:38.164Z,97400.66
2022-08-17T06:57:39.703Z,97402.25
2022-08-17T06:59:54.359Z,97400.97
2022-08-17T07:01:57.391Z,97410.13
2022-08-17T07:03:58.783Z,97407.50
2022-08-17T07:06:06.499Z,97405.63
2022-08-17T07:08:07.812Z,97412.44
2022-08-17T07:10:09.116Z,97410.13
2022-08-17T07:12:10.424Z,97408.00
2022-08-17T07:14:16.935Z,97413.50
2022-08-17T07:16:19.455Z,97411.97
2022-08-17T07:18:20.892Z,97406.13
2022-08-17T07:20:22.564Z,97409.59
2022-08-17T07:22:23.988Z,97403.69
2022-08-17T07:24:30.214Z,97399.47
2022-08-17T07:26:32.028Z,97405.56
2022-08-17T07:28:33.356Z,97404.72
2022-08-17T07:30:37.136Z,97405.59
2022-08-17T07:32:48.907Z,97408.13
2022-08-17T07:34:50.217Z,97404.59
2022-08-17T07:36:51.525Z,97409.75
2022-08-17T07:38:52.870Z,97415.00
2022-08-17T07:40:57.525Z,97413.41
2022-08-17T07:42:58.951Z,97406.63
2022-08-17T07:45:20.300Z,97402.31
2022-08-17T07:47:40.417Z,97408.22
2022-08-17T07:49:41.751Z,97411.44
2022-08-17T07:51:43.270Z,97415.59
2022-08-17T07:53:45.308Z,97408.63
2022-08-17T07:55:46.629Z,97411.97
2022-08-17T07:57:48.141Z,97406.78
2022-08-17T07:59:49.514Z,97402.38
2022-08-17T08:01:55.499Z,97400.56
2022-08-17T08:03:59.113Z,97404.81
2022-08-17T08:06:01.989Z,97391.91
2022-08-17T08:08:03.330Z,97395.28
2022-08-17T08:10:04.650Z,97402.06
2022-08-17T08:12:05.960Z,97408.00
2022-08-17T08:14:17.347Z,97399.38
2022-08-17T08:16:19.988Z,97403.53
2022-08-17T08:18:53.588Z,97412.91
2022-08-17T08:20:53.508Z,97406.84
2022-08-17T08:22:55.487Z,97411.09
2022-08-17T08:24:56.847Z,97404.25
2022-08-17T08:26:58.169Z,97410.97
2022-08-17T08:29:01.446Z,97413.47
2022-08-17T08:31:03.419Z,97398.88
2022-08-17T08:33:04.737Z,97404.75
2022-08-17T08:35:06.695Z,97397.91
2022-08-17T08:37:16.409Z,97400.47
2022-08-17T08:39:19.334Z,97420.00
2022-08-17T08:41:20.654Z,97400.25
2022-08-17T08:43:22.636Z,97411.19
2022-08-17T08:45:24.013Z,97389.56
2022-08-17T08:47:26.520Z,97402.22
2022-08-17T08:49:59.186Z,97404.13
2022-08-17T08:51:49.396Z,97394.34
2022-08-17T08:53:53.415Z,97396.59
2022-08-17T08:55:54.778Z,97394.28
2022-08-17T08:57:56.148Z,97400.31
2022-08-17T08:59:58.390Z,97399.59
2022-08-17T09:01:59.910Z,97398.44
2022-08-17T09:04:18.341Z,97396.44
2022-08-17T09:06:32.300Z,97399.81
2022-08-17T09:08:40.981Z,97401.34
2022-08-17T09:10:42.932Z,97395.38
2022-08-17T09:12:44.243Z,97398.69
2022-08-17T09:14:46.949Z,97398.72
2022-08-17T09:16:49.778Z,97393.75
2022-08-17T09:19:02.178Z,97399.25
2022-08-17T09:21:05.157Z,97398.41
2022-08-17T09:23:07.899Z,97398.56
2022-08-17T09:25:09.296Z,97390.19
2022-08-17T09:27:10.733Z,97402.72
2022-08-17T09:29:12.083Z,97396.97
2022-08-17T09:31:13.379Z,97393.06
2022-08-17T09:33:14.698Z,97399.53
2022-08-17T09:35:16.118Z,97395.94
2022-08-17T09:37:17.465Z,97397.66
2022-08-17T09:39:18.791Z,97396.94
2022-08-17T09:41:20.103Z,97396.06
2022-08-17T09:43:21.428Z,97400.44
2022-08-17T09:45:22.748Z,97397.25
2022-08-17T09:47:24.088Z,97392.91
2022-08-17T09:49:25.479Z,97392.25
2022-08-17T09:51:26.810Z,97393.22
2022-08-17T09:53:31.909Z,97395.78
2022-08-17T09:55:33.508Z,97396.69
2022-08-17T09:57:34.864Z,97281.78
2022-08-17T09:59:38.721Z,97394.47
2022-08-17T10:01:40.240Z,97395.34
2022-08-17T10:03:41.607Z,97391.06
2022-08-17T10:05:46.355Z,97393.72
2022-08-17T10:07:47.782Z,97390.31
2022-08-17T10:09:49.159Z,97384.47
2022-08-17T10:12:09.288Z,97387.25
2022-08-17T10:14:36.928Z,97391.53
2022-08-17T10:16:32.046Z,97400.00
2022-08-17T10:18:34.617Z,97400.00
2022-08-17T10:20:35.940Z,97395.84
2022-08-17T10:22:56.223Z,97404.50
2022-08-17T10:25:23.596Z,97396.81
2022-08-17T10:27:25.463Z,97393.34
2022-08-17T10:29:28.988Z,97404.50
2022-08-17T10:31:35.212Z,97400.31
2022-08-17T10:33:36.945Z,97407.19
2022-08-17T10:35:38.254Z,97404.69
2022-08-17T10:37:40.112Z,97396.06
2022-08-17T10:39:50.505Z,97264.13
2022-08-17T10:41:54.374Z,97408.88
2022-08-17T10:44:37.093Z,97400.22
2022-08-17T10:46:30.198Z,97407.06
2022-08-17T10:48:32.918Z,97406.41
2022-08-17T10:50:34.232Z,97409.88
2022-08-17T10:52:35.551Z,97403.06
2022-08-17T10:54:36.966Z,97411.59
2022-08-17T10:56:38.268Z,97404.78
2022-08-17T10:58:39.619Z,97415.13
2022-08-17T11:00:41.030Z,97410.88
2022-08-17T11:02:42.562Z,97402.22
2022-08-17T11:04:43.867Z,97413.31
2022-08-17T11:06:45.178Z,97406.25
2022-08-17T11:08:46.492Z,97413.88
2022-08-17T11:10:51.989Z,97408.66
2022-08-17T11:12:54.878Z,97414.72
2022-08-17T11:14:56.198Z,97408.81
2022-08-17T11:16:57.506Z,97404.50
2022-08-17T11:18:58.808Z,97397.66
2022-08-17T11:21:00.124Z,97411.31
2022-08-17T11:23:01.471Z,97414.84
2022-08-17T11:25:02.819Z,97402.88
2022-08-17T11:27:04.119Z,97407.38
2022-08-17T11:29:06.296Z,97401.53
2022-08-17T11:31:07.626Z,97389.63
2022-08-17T11:33:08.959Z,97394.69
2022-08-17T11:35:13.311Z,97394.69
2022-08-17T11:37:14.665Z,97393.09
2022-08-17T11:39:16.040Z,97396.69
2022-08-17T11:41:17.360Z,97387.38
2022-08-17T11:43:21.208Z,97387.47
2022-08-17T11:45:32.307Z,97392.50
2022-08-17T11:48:09.471Z,97390.78
2022-08-17T11:50:32.629Z,97383.94
2022-08-17T11:52:33.940Z,97389.91
2022-08-17T11:54:36.187Z,97386.50
2022-08-17T11:56:41.013Z,97389.06
2022-08-17T11:58:42.351Z,97388.16
2022-08-17T12:00:43.678Z,97379.78
2022-08-17T12:02:48.504Z,97377.28
2022-08-17T12:04:50.148Z,97376.31
2022-08-17T12:06:51.515Z,97374.44
2022-08-17T12:08:55.217Z,97366.72
2022-08-17T12:10:57.363Z,97363.31
2022-08-17T12:12:58.686Z,97368.41
2022-08-17T12:15:11.152Z,97364.13
2022-08-17T12:17:14.088Z,97365.00
2022-08-17T12:19:35.388Z,97383.81
2022-08-17T12:21:37.096Z,97363.19
2022-08-17T12:23:38.430Z,97351.22
2022-08-17T12:25:39.750Z,97347.81
2022-08-17T12:28:02.064Z,97354.81
2022-08-17T12:30:02.351Z,97361.56
2022-08-17T12:32:03.694Z,97358.69
2022-08-17T12:34:05.131Z,97362.09
2022-08-17T12:36:07.458Z,97362.22
2022-08-17T12:38:32.646Z,97363.06
2022-08-17T12:40:31.589Z,97362.03
2022-08-17T12:42:34.752Z,97355.84
2022-08-17T12:44:36.140Z,97363.44
2022-08-17T12:46:44.199Z,97348.81
2022-08-17T12:48:59.322Z,97347.09
2022-08-17T12:51:01.857Z,97342.03
2022-08-17T12:53:03.250Z,97349.66
2022-08-17T12:55:06.900Z,97347.03
2022-08-17T12:57:08.700Z,97341.81
2022-08-17T12:59:10.042Z,97351.47
2022-08-17T13:01:13.009Z,97348.25
2022-08-17T13:03:14.347Z,97356.91
2022-08-17T13:05:17.838Z,97352.66
2022-08-17T13:07:19.145Z,97345.84
2022-08-17T13:09:20.456Z,97341.66
2022-08-17T13:11:22.339Z,97336.72
2022-08-17T13:13:23.654Z,97338.50
2022-08-17T13:15:25.015Z,97342.00
2022-08-17T13:17:26.383Z,97343.63
2022-08-17T13:19:32.974Z,97344.56
2022-08-17T13:21:41.959Z,97348.09
2022-08-17T13:23:53.522Z,97336.91
2022-08-17T13:25:55.242Z,97330.81
2022-08-17T13:27:56.580Z,97330.63
2022-08-17T13:29:59.482Z,97336.44
2022-08-17T13:32:04.746Z,97331.25
2022-08-17T13:34:06.487Z,97337.22
2022-08-17T13:36:09.368Z,97325.34
2022-08-17T13:38:14.103Z,97331.38
2022-08-17T13:40:15.477Z,97330.34
2022-08-17T13:42:20.445Z,97330.19
2022-08-17T13:44:27.081Z,97325.06
2022-08-17T13:46:28.375Z,97327.63
2022-08-17T13:48:29.755Z,97317.38
2022-08-17T13:50:31.074Z,97319.06
2022-08-17T13:52:32.388Z,97309.66
2022-08-17T13:54:34.546Z,97318.94
2022-08-17T13:56:38.579Z,97313.94
2022-08-17T13:58:40.579Z,97324.41
2022-08-17T14:00:41.921Z,97321.75
2022-08-17T14:02:43.417Z,97319.09
2022-08-17T14:04:45.045Z,97321.56
2022-08-17T14:06:52.953Z,97325.03
2022-08-17T14:08:55.224Z,97323.34
2022-08-17T14:10:57.015Z,97327.63
2022-08-17T14:12:58.343Z,97330.19
2022-08-17T14:15:01.015Z,97326.78
2022-08-17T14:17:02.483Z,97322.59
2022-08-17T14:19:03.786Z,97328.69
2022-08-17T14:21:05.091Z,97323.56
2022-08-17T14:23:08.261Z,97322.72
2022-08-17T14:25:10.721Z,97326.16
2022-08-17T14:27:12.222Z,97326.16
2022-08-17T14:29:15.274Z,97326.13
2022-08-17T14:31:17.006Z,97330.47
2022-08-17T14:33:22.534Z,97334.00
2022-08-17T14:35:23.979Z,97330.69
2022-08-17T14:37:28.013Z,97339.22
2022-08-17T14:39:29.639Z,97337.63
2022-08-17T14:41:31.005Z,97326.53
2022-08-17T14:43:32.308Z,97335.06
2022-08-17T14:45:33.683Z,97338.47
2022-08-17T14:47:35.018Z,97335.06
2022-08-17T14:49:36.328Z,97333.25
2022-08-17T14:51:39.699Z,97323.00
2022-08-17T14:53:45.866Z,97329.84
2022-08-17T14:55:47.359Z,97332.50
2022-08-17T14:57:50.085Z,97327.41
2022-08-17T14:59:53.213Z,97330.91
2022-08-17T15:01:57.183Z,97329.97
2022-08-17T15:03:58.500Z,97331.78
2022-08-17T15:05:59.848Z,97339.47
2022-08-17T15:08:01.234Z,97340.41
2022-08-17T15:10:02.880Z,97336.03
2022-08-17T15:12:06.427Z,97332.53
2022-08-17T15:14:07.792Z,97323.19
2022-08-17T15:16:09.761Z,97320.63
2022-08-17T15:18:11.087Z,97322.16
2022-08-17T15:20:14.847Z,97314.53
2022-08-17T15:22:16.529Z,97308.56
2022-08-17T15:24:17.868Z,97303.56
2022-08-17T15:26:24.105Z,97299.38
2022-08-17T15:28:28.042Z,97299.28
2022-08-17T15:30:29.379Z,97301.94
2022-08-17T15:32:30.707Z,97304.50
2022-08-17T15:34:32.010Z,97308.69
2022-08-17T15:36:33.335Z,97309.63
2022-08-17T15:38:36.827Z,97307.94
2022-08-17T15:40:38.168Z,97304.50
2022-08-17T15:42:40.969Z,97199.09
2022-08-17T15:44:43.523Z,97313.97
2022-08-17T15:46:44.864Z,97319.22
2022-08-17T15:48:46.215Z,97314.19
2022-08-17T15:50:47.632Z,97320.06
2022-08-17T15:52:48.939Z,97320.78
2022-08-17T15:54:50.235Z,97321.66
2022-08-17T15:56:51.542Z,97321.66
2022-08-17T15:58:54.751Z,97315.63
2022-08-17T16:01:14.200Z,97319.94
2022-08-17T16:04:01.182Z,97325.91
2022-08-17T16:05:38.058Z,97317.44
2022-08-17T16:07:42.102Z,97315.78
2022-08-17T16:09:43.399Z,97317.59
2022-08-17T16:11:46.073Z,97312.50
2022-08-17T16:13:55.262Z,97317.72
2022-08-17T16:15:58.099Z,97316.13
2022-08-17T16:17:59.489Z,97310.09
2022-08-17T16:20:00.849Z,97310.09
2022-08-17T16:22:02.150Z,97298.94
2022-08-17T16:24:03.514Z,97293.75
2022-08-17T16:26:04.812Z,97289.50
2022-08-17T16:28:06.167Z,97287.81
2022-08-17T16:30:07.522Z,97287.81
2022-08-17T16:32:08.946Z,97285.25
2022-08-17T16:34:17.739Z,97281.91
2022-08-17T16:36:21.591Z,97318.59
2022-08-17T16:38:22.908Z,97291.31
2022-08-17T16:40:24.337Z,97284.50
2022-08-17T16:42:25.658Z,97284.50
2022-08-17T16:44:30.899Z,97290.53
2022-08-17T16:46:32.236Z,97295.66
2022-08-17T16:48:33.575Z,97285.41
2022-08-17T16:50:34.963Z,97283.75
2022-08-17T16:52:36.676Z,97282.06
2022-08-17T16:54:38.021Z,97288.88
2022-08-17T16:56:39.331Z,97291.44
2022-08-17T16:58:41.145Z,97300.03
2022-08-17T17:00:44.128Z,97302.59
2022-08-17T17:02:47.230Z,97296.63
2022-08-17T17:04:48.667Z,97295.81
2022-08-17T17:06:50.072Z,97294.97
2022-08-17T17:08:51.447Z,97297.59
2022-08-17T17:10:55.330Z,97302.72
2022-08-17T17:13:01.304Z,97301.84
2022-08-17T17:15:04.729Z,97291.66
2022-08-17T17:17:06.083Z,97287.41
2022-08-17T17:19:07.379Z,97284.03
2022-08-17T17:21:08.730Z,97289.16
2022-08-17T17:23:11.569Z,97292.59
2022-08-17T17:25:14.274Z,97288.31
2022-08-17T17:27:15.580Z,97292.59
2022-08-17T17:29:18.262Z,97298.56
2022-08-17T17:31:19.644Z,97295.25
2022-08-17T17:33:22.532Z,97295.25
2022-08-17T17:35:24.056Z,97288.44
2022-08-17T17:37:25.392Z,97299.53
2022-08-17T17:39:29.323Z,97314.91
2022-08-17T17:41:31.836Z,97315.00
2022-08-17T17:43:40.307Z,97316.72
2022-08-17T17:45:42.207Z,97321.84
2022-08-17T17:47:43.855Z,97322.75
2022-08-17T17:49:45.200Z,97313.41
2022-08-17T17:52:09.418Z,97332.25
2022-08-17T17:54:08.835Z,97329.69
2022-08-17T17:56:19.652Z,97337.38
2022-08-17T17:58:32.040Z,97340.81
2022-08-17T18:00:33.347Z,97349.34
2022-08-17T18:02:51.917Z,97343.47
2022-08-17T18:04:54.054Z,97350.31
2022-08-17T18:06:55.644Z,97351.25
2022-08-17T18:08:57.140Z,97336.66
2022-08-17T18:10:59.923Z,97348.69
2022-08-17T18:13:07.980Z,97355.53
2022-08-17T18:15:09.983Z,97352.97
2022-08-17T18:17:12.635Z,97356.41
2022-08-17T18:19:14.164Z,97346.25
2022-08-17T18:21:19.413Z,97351.38
2022-08-17T18:23:25.547Z,97348.84
2022-08-17T18:25:29.578Z,97344.56
2022-08-17T18:27:30.883Z,97348.00
2022-08-17T18:29:32.415Z,97353.13
2022-08-17T18:31:33.743Z,97353.22
2022-08-17T18:33:35.279Z,97343.81
2022-08-17T18:35:36.590Z,97351.53
2022-08-17T18:37:37.889Z,97352.47
2022-08-17T18:39:39.262Z,97342.25
2022-08-17T18:41:40.600Z,97354.31
2022-08-17T18:43:52.992Z,97355.16
2022-08-17T18:45:55.406Z,97362.88
2022-08-17T18:47:56.720Z,97356.94
2022-08-17T18:49:58.268Z,97359.63
2022-08-17T18:51:59.720Z,97357.97
2022-08-17T18:54:01.063Z,97356.31
2022-08-17T18:56:02.368Z,97349.56
2022-08-17T18:58:03.686Z,97349.56
2022-08-17T19:00:05.001Z,97340.19
2022-08-17T19:02:15.989Z,97348.78
2022-08-17T19:04:21.258Z,97356.47
2022-08-17T19:06:22.590Z,97349.69
2022-08-17T19:08:23.988Z,97351.47
2022-08-17T19:10:25.339Z,97347.25
2022-08-17T19:12:27.500Z,97345.56
2022-08-17T19:14:28.922Z,97339.59
2022-08-17T19:16:30.366Z,97342.25
2022-08-17T19:18:31.666Z,97340.56
2022-08-17T19:20:33.035Z,97349.94
2022-08-17T19:22:34.479Z,97343.09
2022-08-17T19:24:35.874Z,97342.25
2022-08-17T19:26:54.052Z,97341.50
2022-08-17T19:28:57.400Z,97338.09
2022-08-17T19:30:59.718Z,97338.13
2022-08-17T19:33:01.045Z,97342.50
2022-08-17T19:35:02.380Z,97334.88
2022-08-17T19:37:03.727Z,97337.50
2022-08-17T19:39:05.296Z,97336.66
2022-08-17T19:41:06.734Z,97334.09
2022-08-17T19:43:08.069Z,97336.72
2022-08-17T19:45:09.427Z,97336.72
2022-08-17T19:47:10.734Z,97338.53
2022-08-17T19:49:12.096Z,97337.63
2022-08-17T19:51:13.393Z,97331.69
2022-08-17T19:53:14.732Z,97329.94
2022-08-17T19:55:20.430Z,97213.00
2022-08-17T19:57:22.188Z,97338.53
2022-08-17T19:59:23.637Z,97331.84
2022-08-17T20:01:25.066Z,97330.25
2022-08-17T20:03:26.496Z,97335.38
2022-08-17T20:05:27.801Z,97326.84
2022-08-17T20:07:29.160Z,97325.22
2022-08-17T20:09:33.755Z,97336.28
2022-08-17T20:11:35.307Z,97332.94
2022-08-17T20:13:36.641Z,97337.31
2022-08-17T20:15:37.967Z,97337.31
2022-08-17T20:17:39.293Z,97335.69
2022-08-17T20:19:41.074Z,97332.31
2022-08-17T20:21:42.435Z,97337.50
2022-08-17T20:23:43.741Z,97333.25
2022-08-17T20:25:45.099Z,97334.09
2022-08-17T20:27:46.493Z,97334.94
2022-08-17T20:29:51.033Z,97329.81
2022-08-17T20:31:52.443Z,97329.03
2022-08-17T20:33:55.010Z,97331.59
2022-08-17T20:35:56.332Z,97328.25
2022-08-17T20:37:57.764Z,97324.06
2022-08-17T20:39:59.121Z,97325.06
2022-08-17T20:42:02.682Z,97320.97
2022-08-17T20:44:04.302Z,97318.47
2022-08-17T20:46:05.659Z,97326.97
2022-08-17T20:48:35.036Z,97318.53
2022-08-17T20:50:28.247Z,97320.19
2022-08-17T20:52:31.001Z,97318.47
2022-08-17T20:54:32.312Z,97312.50
2022-08-17T20:56:33.616Z,97316.72
2022-08-17T20:58:34.960Z,97309.94
2022-08-17T21:00:37.927Z,97309.88
2022-08-17T21:02:41.721Z,97303.22
2022-08-17T21:04:43.035Z,97315.19
2022-08-17T21:06:44.976Z,97315.25
2022-08-17T21:08:51.148Z,97304.00
2022-08-17T21:10:53.245Z,97317.63
2022-08-17T21:12:54.557Z,97316.94
2022-08-17T21:14:58.642Z,97320.28
2022-08-17T21:16:59.995Z,97328.94
2022-08-17T21:19:02.454Z,97319.53
2022-08-17T21:21:03.781Z,97322.22
2022-08-17T21:23:05.274Z,97324.69
2022-08-17T21:25:06.592Z,97324.16
2022-08-17T21:27:08.352Z,97314.56
2022-08-17T21:29:31.827Z,97324.19
2022-08-17T21:31:32.040Z,97326.59
2022-08-17T21:33:35.892Z,97325.72
2022-08-17T21:35:38.763Z,97331.19
2022-08-17T21:37:40.331Z,97333.66
2022-08-17T21:39:41.759Z,97332.34
2022-08-17T21:41:43.151Z,97341.78
2022-08-17T21:43:44.459Z,97342.97
2022-08-17T21:45:45.757Z,97338.88
2022-08-17T21:47:49.145Z,97346.47
2022-08-17T21:49:50.922Z,97348.31
2022-08-17T21:51:53.724Z,97352.16
2022-08-17T21:53:55.933Z,97346.22
2022-08-17T21:55:57.383Z,97348.06
2022-08-17T21:58:14.194Z,97359.72
2022-08-17T22:00:17.100Z,97357.47
2022-08-17T22:02:18.399Z,97362.06
2022-08-17T22:04:19.791Z,97354.84
2022-08-17T22:06:21.164Z,97350.00
2022-08-17T22:08:22.544Z,97357.47
2022-08-17T22:10:24.111Z,97355.03
2022-08-17T22:12:25.447Z,97361.81
2022-08-17T22:14:26.792Z,97365.66
2022-08-17T22:16:48.095Z,97362.00
2022-08-17T22:18:53.662Z,97360.81
2022-08-17T22:20:55.231Z,97363.44
2022-08-17T22:23:15.072Z,97357.16
2022-08-17T22:25:17.093Z,97353.53
2022-08-17T22:27:19.319Z,97354.34
2022-08-17T22:29:20.624Z,97354.00
2022-08-17T22:31:22.194Z,97357.47
2022-08-17T22:33:23.596Z,97348.94
2022-08-17T22:35:24.912Z,97352.88
2022-08-17T22:37:27.735Z,97348.31
2022-08-17T22:39:29.305Z,97349.09
2022-08-17T22:41:36.724Z,97349.84
2022-08-17T22:43:38.058Z,97356.81
2022-08-17T22:45:43.204Z,97338.22
2022-08-17T22:47:48.773Z,97357.41
2022-08-17T22:49:53.820Z,97351.66
2022-08-17T22:51:55.758Z,97354.81
2022-08-17T22:54:15.692Z,97351.78
2022-08-17T22:56:35.718Z,97355.03
2022-08-17T22:58:59.227Z,97348.81
2022-08-17T23:01:00.765Z,97360.66
2022-08-17T23:03:04.510Z,97361.31
2022-08-17T23:05:05.898Z,97357.16
2022-08-17T23:07:07.255Z,97359.63
2022-08-17T23:09:08.579Z,97222.22
2022-08-17T23:11:09.875Z,97351.66
2022-08-17T23:13:11.936Z,97212.09
2022-08-17T23:15:14.331Z,97355.56
2022-08-17T23:17:16.487Z,97343.59
2022-08-17T23:19:17.799Z,97342.41
2022-08-17T23:21:19.147Z,97341.88
2022-08-17T23:23:28.452Z,97337.88
2022-08-17T23:25:29.810Z,97341.69
2022-08-17T23:27:31.733Z,97336.69
2022-08-17T23:29:33.030Z,97334.41
2022-08-17T23:31:37.626Z,97329.41
2022-08-17T23:33:38.928Z,97338.91
2022-08-17T23:35:41.094Z,97344.09
2022-08-17T23:37:42.563Z,97337.50
2022-08-17T23:39:45.144Z,97346.25
2022-08-17T23:41:46.647Z,97358.28
2022-08-17T23:43:47.951Z,97347.06
2022-08-17T23:45:49.464Z,97347.22
2022-08-17T23:47:52.279Z,97349.81
2022-08-17T23:49:54.217Z,97343.03
2022-08-17T23:51:56.629Z,97341.38
2022-08-17T23:54:04.417Z,97344.00
2022-08-17T23:56:11.110Z,97341.44
2022-08-17T23:58:12.899Z,97201.59
